sensor_id;sensor_type;location;lat;lon;timestamp;P1;durP1;ratioP1;P2;durP2;ratioP2
11837;SDS011;5978;51.020;6.764;2022-07-17T00:01:31;5.03;;;2.17;;
11837;SDS011;5978;51.020;6.764;2022-07-17T00:03:57;10.27;;;2.43;;
11837;SDS011;5978;51.020;6.764;2022-07-17T00:06:23;7.60;;;2.60;;
11837;SDS011;5978;51.020;6.764;2022-07-17T00:08:48;3.90;;;1.73;;
11837;SDS011;5978;51.020;6.764;2022-07-17T00:11:14;3.70;;;2.10;;
11837;SDS011;5978;51.020;6.764;2022-07-17T00:13:39;4.30;;;2.37;;
11837;SDS011;5978;51.020;6.764;2022-07-17T00:16:05;2.63;;;1.83;;
11837;SDS011;5978;51.020;6.764;2022-07-17T00:18:31;4.73;;;2.70;;
11837;SDS011;5978;51.020;6.764;2022-07-17T00:20:57;3.50;;;2.10;;
11837;SDS011;5978;51.020;6.764;2022-07-17T00:23:23;3.63;;;2.03;;
11837;SDS011;5978;51.020;6.764;2022-07-17T00:25:48;13.53;;;2.10;;
11837;SDS011;5978;51.020;6.764;2022-07-17T00:28:14;3.10;;;2.17;;
11837;SDS011;5978;51.020;6.764;2022-07-17T00:30:39;5.27;;;2.30;;
11837;SDS011;5978;51.020;6.764;2022-07-17T00:33:05;5.03;;;2.00;;
11837;SDS011;5978;51.020;6.764;2022-07-17T00:35:30;6.60;;;2.70;;
11837;SDS011;5978;51.020;6.764;2022-07-17T00:37:56;10.10;;;2.77;;
11837;SDS011;5978;51.020;6.764;2022-07-17T00:40:22;4.73;;;2.30;;
11837;SDS011;5978;51.020;6.764;2022-07-17T00:42:49;4.63;;;2.33;;
11837;SDS011;5978;51.020;6.764;2022-07-17T00:45:16;4.60;;;2.40;;
11837;SDS011;5978;51.020;6.764;2022-07-17T00:50:21;7.13;;;3.00;;
11837;SDS011;5978;51.020;6.764;2022-07-17T00:52:48;3.63;;;2.57;;
11837;SDS011;5978;51.020;6.764;2022-07-17T00:55:14;5.00;;;2.60;;
11837;SDS011;5978;51.020;6.764;2022-07-17T00:57:41;6.90;;;2.33;;
11837;SDS011;5978;51.020;6.764;2022-07-17T01:00:10;5.43;;;2.40;;
11837;SDS011;5978;51.020;6.764;2022-07-17T01:02:36;5.13;;;2.57;;
11837;SDS011;5978;51.020;6.764;2022-07-17T01:05:03;3.90;;;2.77;;
11837;SDS011;5978;51.020;6.764;2022-07-17T01:07:30;5.00;;;2.10;;
11837;SDS011;5978;51.020;6.764;2022-07-17T01:09:56;4.67;;;3.40;;
11837;SDS011;5978;51.020;6.764;2022-07-17T01:12:21;4.93;;;2.80;;
11837;SDS011;5978;51.020;6.764;2022-07-17T01:14:48;4.17;;;2.87;;
11837;SDS011;5978;51.020;6.764;2022-07-17T01:17:15;3.20;;;2.30;;
11837;SDS011;5978;51.020;6.764;2022-07-17T01:19:42;4.73;;;2.37;;
11837;SDS011;5978;51.020;6.764;2022-07-17T01:22:08;5.90;;;2.77;;
11837;SDS011;5978;51.020;6.764;2022-07-17T01:24:34;5.33;;;2.67;;
11837;SDS011;5978;51.020;6.764;2022-07-17T01:27:03;4.50;;;2.33;;
11837;SDS011;5978;51.020;6.764;2022-07-17T01:29:28;6.20;;;2.60;;
11837;SDS011;5978;51.020;6.764;2022-07-17T01:31:54;4.03;;;2.40;;
11837;SDS011;5978;51.020;6.764;2022-07-17T01:34:20;3.97;;;2.30;;
11837;SDS011;5978;51.020;6.764;2022-07-17T01:36:45;7.00;;;2.60;;
11837;SDS011;5978;51.020;6.764;2022-07-17T01:39:11;11.03;;;5.33;;
11837;SDS011;5978;51.020;6.764;2022-07-17T01:41:36;9.33;;;3.90;;
11837;SDS011;5978;51.020;6.764;2022-07-17T01:44:02;4.20;;;2.83;;
11837;SDS011;5978;51.020;6.764;2022-07-17T01:46:29;5.60;;;3.30;;
11837;SDS011;5978;51.020;6.764;2022-07-17T01:48:54;5.17;;;3.03;;
11837;SDS011;5978;51.020;6.764;2022-07-17T01:51:20;4.97;;;3.00;;
11837;SDS011;5978;51.020;6.764;2022-07-17T01:53:46;4.40;;;2.77;;
11837;SDS011;5978;51.020;6.764;2022-07-17T01:56:12;9.23;;;2.67;;
11837;SDS011;5978;51.020;6.764;2022-07-17T01:58:37;7.57;;;2.73;;
11837;SDS011;5978;51.020;6.764;2022-07-17T02:01:03;7.07;;;3.40;;
11837;SDS011;5978;51.020;6.764;2022-07-17T02:03:29;12.30;;;3.40;;
11837;SDS011;5978;51.020;6.764;2022-07-17T02:05:54;7.27;;;2.70;;
11837;SDS011;5978;51.020;6.764;2022-07-17T02:08:20;4.67;;;2.60;;
11837;SDS011;5978;51.020;6.764;2022-07-17T02:10:46;6.00;;;2.60;;
11837;SDS011;5978;51.020;6.764;2022-07-17T02:13:12;3.83;;;2.70;;
11837;SDS011;5978;51.020;6.764;2022-07-17T02:15:37;4.60;;;3.03;;
11837;SDS011;5978;51.020;6.764;2022-07-17T02:18:03;6.00;;;2.87;;
11837;SDS011;5978;51.020;6.764;2022-07-17T02:20:28;4.33;;;3.00;;
11837;SDS011;5978;51.020;6.764;2022-07-17T02:22:54;9.80;;;2.93;;
11837;SDS011;5978;51.020;6.764;2022-07-17T02:25:20;3.50;;;2.53;;
11837;SDS011;5978;51.020;6.764;2022-07-17T02:27:45;5.20;;;2.87;;
11837;SDS011;5978;51.020;6.764;2022-07-17T02:30:12;6.33;;;2.60;;
11837;SDS011;5978;51.020;6.764;2022-07-17T02:32:41;5.60;;;2.57;;
11837;SDS011;5978;51.020;6.764;2022-07-17T02:35:08;5.00;;;3.20;;
11837;SDS011;5978;51.020;6.764;2022-07-17T02:37:36;4.07;;;2.73;;
11837;SDS011;5978;51.020;6.764;2022-07-17T02:40:02;3.90;;;2.67;;
11837;SDS011;5978;51.020;6.764;2022-07-17T02:42:29;4.70;;;2.60;;
11837;SDS011;5978;51.020;6.764;2022-07-17T02:44:55;6.10;;;3.20;;
11837;SDS011;5978;51.020;6.764;2022-07-17T02:47:26;5.33;;;2.73;;
11837;SDS011;5978;51.020;6.764;2022-07-17T02:49:54;7.97;;;3.00;;
11837;SDS011;5978;51.020;6.764;2022-07-17T02:52:20;3.53;;;2.47;;
11837;SDS011;5978;51.020;6.764;2022-07-17T02:54:46;7.93;;;3.50;;
11837;SDS011;5978;51.020;6.764;2022-07-17T02:57:12;3.10;;;2.80;;
11837;SDS011;5978;51.020;6.764;2022-07-17T02:59:37;8.13;;;2.40;;
11837;SDS011;5978;51.020;6.764;2022-07-17T03:02:03;5.50;;;3.37;;
11837;SDS011;5978;51.020;6.764;2022-07-17T03:04:29;6.27;;;3.80;;
11837;SDS011;5978;51.020;6.764;2022-07-17T03:06:54;5.00;;;2.67;;
11837;SDS011;5978;51.020;6.764;2022-07-17T03:09:20;4.03;;;2.97;;
11837;SDS011;5978;51.020;6.764;2022-07-17T03:11:45;4.20;;;2.60;;
11837;SDS011;5978;51.020;6.764;2022-07-17T03:14:11;6.70;;;4.00;;
11837;SDS011;5978;51.020;6.764;2022-07-17T03:16:36;13.23;;;3.57;;
11837;SDS011;5978;51.020;6.764;2022-07-17T03:19:02;9.00;;;3.60;;
11837;SDS011;5978;51.020;6.764;2022-07-17T03:21:28;5.60;;;3.63;;
11837;SDS011;5978;51.020;6.764;2022-07-17T03:23:54;3.50;;;3.00;;
11837;SDS011;5978;51.020;6.764;2022-07-17T03:26:19;4.77;;;2.70;;
11837;SDS011;5978;51.020;6.764;2022-07-17T03:28:45;6.30;;;3.00;;
11837;SDS011;5978;51.020;6.764;2022-07-17T03:31:10;7.43;;;3.57;;
11837;SDS011;5978;51.020;6.764;2022-07-17T03:33:36;5.67;;;3.13;;
11837;SDS011;5978;51.020;6.764;2022-07-17T03:36:01;5.87;;;3.23;;
11837;SDS011;5978;51.020;6.764;2022-07-17T03:38:27;7.23;;;2.93;;
11837;SDS011;5978;51.020;6.764;2022-07-17T03:40:53;4.20;;;2.40;;
11837;SDS011;5978;51.020;6.764;2022-07-17T03:43:18;6.23;;;2.70;;
11837;SDS011;5978;51.020;6.764;2022-07-17T03:45:44;4.27;;;3.87;;
11837;SDS011;5978;51.020;6.764;2022-07-17T03:48:09;6.30;;;2.60;;
11837;SDS011;5978;51.020;6.764;2022-07-17T03:50:35;8.90;;;3.50;;
11837;SDS011;5978;51.020;6.764;2022-07-17T03:53:01;7.60;;;2.77;;
11837;SDS011;5978;51.020;6.764;2022-07-17T03:55:26;5.23;;;2.93;;
11837;SDS011;5978;51.020;6.764;2022-07-17T03:57:52;5.30;;;3.00;;
11837;SDS011;5978;51.020;6.764;2022-07-17T04:00:18;5.63;;;2.77;;
11837;SDS011;5978;51.020;6.764;2022-07-17T04:02:43;7.13;;;3.80;;
11837;SDS011;5978;51.020;6.764;2022-07-17T04:05:09;4.37;;;2.93;;
11837;SDS011;5978;51.020;6.764;2022-07-17T04:07:36;3.50;;;3.20;;
11837;SDS011;5978;51.020;6.764;2022-07-17T04:10:03;3.50;;;2.60;;
11837;SDS011;5978;51.020;6.764;2022-07-17T04:12:29;4.40;;;3.10;;
11837;SDS011;5978;51.020;6.764;2022-07-17T04:14:55;4.50;;;3.73;;
11837;SDS011;5978;51.020;6.764;2022-07-17T04:17:20;5.80;;;2.73;;
11837;SDS011;5978;51.020;6.764;2022-07-17T04:19:46;4.53;;;3.30;;
11837;SDS011;5978;51.020;6.764;2022-07-17T04:22:12;4.30;;;3.00;;
11837;SDS011;5978;51.020;6.764;2022-07-17T04:24:37;5.03;;;3.10;;
11837;SDS011;5978;51.020;6.764;2022-07-17T04:27:03;4.90;;;3.33;;
11837;SDS011;5978;51.020;6.764;2022-07-17T04:29:29;5.80;;;2.50;;
11837;SDS011;5978;51.020;6.764;2022-07-17T04:31:55;11.10;;;3.13;;
11837;SDS011;5978;51.020;6.764;2022-07-17T04:34:20;5.07;;;3.50;;
11837;SDS011;5978;51.020;6.764;2022-07-17T04:36:46;4.33;;;2.97;;
11837;SDS011;5978;51.020;6.764;2022-07-17T04:39:11;9.23;;;3.33;;
11837;SDS011;5978;51.020;6.764;2022-07-17T04:41:37;5.97;;;2.67;;
11837;SDS011;5978;51.020;6.764;2022-07-17T04:44:02;7.57;;;3.17;;
11837;SDS011;5978;51.020;6.764;2022-07-17T04:46:28;6.10;;;3.47;;
11837;SDS011;5978;51.020;6.764;2022-07-17T04:48:54;6.40;;;3.03;;
11837;SDS011;5978;51.020;6.764;2022-07-17T04:51:19;6.83;;;3.40;;
11837;SDS011;5978;51.020;6.764;2022-07-17T04:53:45;5.60;;;3.07;;
11837;SDS011;5978;51.020;6.764;2022-07-17T04:56:10;5.30;;;2.87;;
11837;SDS011;5978;51.020;6.764;2022-07-17T04:58:36;3.03;;;2.73;;
11837;SDS011;5978;51.020;6.764;2022-07-17T05:01:02;4.10;;;2.40;;
11837;SDS011;5978;51.020;6.764;2022-07-17T05:03:27;4.27;;;3.37;;
11837;SDS011;5978;51.020;6.764;2022-07-17T05:05:53;5.53;;;3.60;;
11837;SDS011;5978;51.020;6.764;2022-07-17T05:08:19;5.93;;;3.20;;
11837;SDS011;5978;51.020;6.764;2022-07-17T05:10:44;5.07;;;2.77;;
11837;SDS011;5978;51.020;6.764;2022-07-17T05:13:11;5.83;;;3.50;;
11837;SDS011;5978;51.020;6.764;2022-07-17T05:15:37;6.57;;;3.67;;
11837;SDS011;5978;51.020;6.764;2022-07-17T05:18:03;8.43;;;3.53;;
11837;SDS011;5978;51.020;6.764;2022-07-17T05:20:29;4.40;;;3.20;;
11837;SDS011;5978;51.020;6.764;2022-07-17T05:22:55;28.37;;;4.43;;
11837;SDS011;5978;51.020;6.764;2022-07-17T05:25:21;5.20;;;3.00;;
11837;SDS011;5978;51.020;6.764;2022-07-17T05:27:47;3.90;;;2.60;;
11837;SDS011;5978;51.020;6.764;2022-07-17T05:30:13;5.37;;;4.40;;
11837;SDS011;5978;51.020;6.764;2022-07-17T05:32:38;6.63;;;3.13;;
11837;SDS011;5978;51.020;6.764;2022-07-17T05:35:04;9.23;;;3.23;;
11837;SDS011;5978;51.020;6.764;2022-07-17T05:37:30;5.60;;;3.30;;
11837;SDS011;5978;51.020;6.764;2022-07-17T05:39:56;5.63;;;3.50;;
11837;SDS011;5978;51.020;6.764;2022-07-17T05:42:21;9.93;;;3.57;;
11837;SDS011;5978;51.020;6.764;2022-07-17T05:44:47;9.50;;;3.87;;
11837;SDS011;5978;51.020;6.764;2022-07-17T05:47:12;6.37;;;3.27;;
11837;SDS011;5978;51.020;6.764;2022-07-17T05:49:38;6.50;;;3.50;;
11837;SDS011;5978;51.020;6.764;2022-07-17T05:52:04;4.93;;;4.43;;
11837;SDS011;5978;51.020;6.764;2022-07-17T05:54:30;7.13;;;3.80;;
11837;SDS011;5978;51.020;6.764;2022-07-17T05:56:57;6.93;;;3.50;;
11837;SDS011;5978;51.020;6.764;2022-07-17T05:59:23;6.87;;;3.80;;
11837;SDS011;5978;51.020;6.764;2022-07-17T06:01:49;7.17;;;4.03;;
11837;SDS011;5978;51.020;6.764;2022-07-17T06:04:14;7.40;;;3.77;;
11837;SDS011;5978;51.020;6.764;2022-07-17T06:06:40;5.13;;;4.00;;
11837;SDS011;5978;51.020;6.764;2022-07-17T06:09:05;13.00;;;4.47;;
11837;SDS011;5978;51.020;6.764;2022-07-17T06:11:31;6.27;;;3.73;;
11837;SDS011;5978;51.020;6.764;2022-07-17T06:13:57;7.10;;;4.33;;
11837;SDS011;5978;51.020;6.764;2022-07-17T06:16:22;5.20;;;3.90;;
11837;SDS011;5978;51.020;6.764;2022-07-17T06:18:48;13.27;;;4.80;;
11837;SDS011;5978;51.020;6.764;2022-07-17T06:21:14;4.73;;;3.80;;
11837;SDS011;5978;51.020;6.764;2022-07-17T06:23:39;4.60;;;4.20;;
11837;SDS011;5978;51.020;6.764;2022-07-17T06:26:05;8.37;;;4.67;;
11837;SDS011;5978;51.020;6.764;2022-07-17T06:28:31;8.00;;;4.10;;
11837;SDS011;5978;51.020;6.764;2022-07-17T06:30:56;12.13;;;5.00;;
11837;SDS011;5978;51.020;6.764;2022-07-17T06:33:22;7.70;;;4.60;;
11837;SDS011;5978;51.020;6.764;2022-07-17T06:35:48;4.80;;;4.03;;
11837;SDS011;5978;51.020;6.764;2022-07-17T06:38:13;5.53;;;3.73;;
11837;SDS011;5978;51.020;6.764;2022-07-17T06:40:39;10.73;;;4.93;;
11837;SDS011;5978;51.020;6.764;2022-07-17T06:43:05;12.57;;;3.53;;
11837;SDS011;5978;51.020;6.764;2022-07-17T06:45:31;5.10;;;4.10;;
11837;SDS011;5978;51.020;6.764;2022-07-17T06:47:57;5.40;;;3.30;;
11837;SDS011;5978;51.020;6.764;2022-07-17T06:50:22;8.30;;;3.73;;
11837;SDS011;5978;51.020;6.764;2022-07-17T06:52:48;4.10;;;3.50;;
11837;SDS011;5978;51.020;6.764;2022-07-17T06:55:13;5.43;;;2.70;;
11837;SDS011;5978;51.020;6.764;2022-07-17T06:57:39;9.23;;;3.00;;
11837;SDS011;5978;51.020;6.764;2022-07-17T07:00:05;5.83;;;3.43;;
11837;SDS011;5978;51.020;6.764;2022-07-17T07:02:31;6.60;;;3.00;;
11837;SDS011;5978;51.020;6.764;2022-07-17T07:04:57;10.57;;;5.20;;
11837;SDS011;5978;51.020;6.764;2022-07-17T07:07:23;10.53;;;2.83;;
11837;SDS011;5978;51.020;6.764;2022-07-17T07:09:48;3.00;;;2.43;;
11837;SDS011;5978;51.020;6.764;2022-07-17T07:12:14;4.43;;;3.20;;
11837;SDS011;5978;51.020;6.764;2022-07-17T07:14:39;7.43;;;3.70;;
11837;SDS011;5978;51.020;6.764;2022-07-17T07:17:05;5.60;;;3.10;;
11837;SDS011;5978;51.020;6.764;2022-07-17T07:19:30;3.33;;;2.90;;
11837;SDS011;5978;51.020;6.764;2022-07-17T07:21:56;4.57;;;2.80;;
11837;SDS011;5978;51.020;6.764;2022-07-17T07:24:22;6.83;;;2.67;;
11837;SDS011;5978;51.020;6.764;2022-07-17T07:26:47;3.80;;;2.63;;
11837;SDS011;5978;51.020;6.764;2022-07-17T07:29:13;6.00;;;3.13;;
11837;SDS011;5978;51.020;6.764;2022-07-17T07:31:39;4.60;;;2.80;;
11837;SDS011;5978;51.020;6.764;2022-07-17T07:34:04;4.63;;;2.80;;
11837;SDS011;5978;51.020;6.764;2022-07-17T07:36:30;4.47;;;2.53;;
11837;SDS011;5978;51.020;6.764;2022-07-17T07:38:55;3.13;;;2.83;;
11837;SDS011;5978;51.020;6.764;2022-07-17T07:41:21;3.20;;;2.77;;
11837;SDS011;5978;51.020;6.764;2022-07-17T07:43:47;4.10;;;2.50;;
11837;SDS011;5978;51.020;6.764;2022-07-17T07:46:12;3.30;;;2.50;;
11837;SDS011;5978;51.020;6.764;2022-07-17T07:48:38;4.17;;;2.50;;
11837;SDS011;5978;51.020;6.764;2022-07-17T07:51:03;2.33;;;1.77;;
11837;SDS011;5978;51.020;6.764;2022-07-17T07:53:29;3.97;;;2.20;;
11837;SDS011;5978;51.020;6.764;2022-07-17T07:55:55;6.83;;;2.40;;
11837;SDS011;5978;51.020;6.764;2022-07-17T07:58:20;11.67;;;3.07;;
11837;SDS011;5978;51.020;6.764;2022-07-17T08:00:46;6.23;;;2.33;;
11837;SDS011;5978;51.020;6.764;2022-07-17T08:03:12;6.40;;;2.33;;
11837;SDS011;5978;51.020;6.764;2022-07-17T08:05:38;4.40;;;1.83;;
11837;SDS011;5978;51.020;6.764;2022-07-17T08:08:04;5.40;;;2.40;;
11837;SDS011;5978;51.020;6.764;2022-07-17T08:10:30;3.57;;;2.50;;
11837;SDS011;5978;51.020;6.764;2022-07-17T08:12:56;7.13;;;2.57;;
11837;SDS011;5978;51.020;6.764;2022-07-17T08:15:22;3.87;;;2.40;;
11837;SDS011;5978;51.020;6.764;2022-07-17T08:17:49;7.60;;;2.27;;
11837;SDS011;5978;51.020;6.764;2022-07-17T08:20:16;3.50;;;2.40;;
11837;SDS011;5978;51.020;6.764;2022-07-17T08:22:44;3.17;;;2.27;;
11837;SDS011;5978;51.020;6.764;2022-07-17T08:25:11;3.30;;;2.60;;
11837;SDS011;5978;51.020;6.764;2022-07-17T08:27:37;7.00;;;2.47;;
11837;SDS011;5978;51.020;6.764;2022-07-17T08:30:04;3.33;;;1.70;;
11837;SDS011;5978;51.020;6.764;2022-07-17T08:32:31;3.90;;;2.40;;
11837;SDS011;5978;51.020;6.764;2022-07-17T08:34:57;6.53;;;1.63;;
11837;SDS011;5978;51.020;6.764;2022-07-17T08:37:22;3.57;;;2.03;;
11837;SDS011;5978;51.020;6.764;2022-07-17T08:39:49;3.93;;;2.10;;
11837;SDS011;5978;51.020;6.764;2022-07-17T08:42:15;3.90;;;1.73;;
11837;SDS011;5978;51.020;6.764;2022-07-17T08:44:44;3.17;;;2.20;;
11837;SDS011;5978;51.020;6.764;2022-07-17T08:47:11;4.10;;;1.73;;
11837;SDS011;5978;51.020;6.764;2022-07-17T08:49:41;1.70;;;1.60;;
11837;SDS011;5978;51.020;6.764;2022-07-17T08:52:10;2.73;;;2.13;;
11837;SDS011;5978;51.020;6.764;2022-07-17T08:54:37;4.07;;;1.93;;
11837;SDS011;5978;51.020;6.764;2022-07-17T08:57:03;7.23;;;2.17;;
11837;SDS011;5978;51.020;6.764;2022-07-17T08:59:29;8.90;;;2.67;;
11837;SDS011;5978;51.020;6.764;2022-07-17T09:01:55;5.83;;;1.70;;
11837;SDS011;5978;51.020;6.764;2022-07-17T09:04:22;11.53;;;1.50;;
11837;SDS011;5978;51.020;6.764;2022-07-17T09:06:58;5.57;;;1.83;;
11837;SDS011;5978;51.020;6.764;2022-07-17T09:09:25;4.00;;;1.83;;
11837;SDS011;5978;51.020;6.764;2022-07-17T09:11:51;3.50;;;1.60;;
11837;SDS011;5978;51.020;6.764;2022-07-17T09:14:18;2.63;;;2.00;;
11837;SDS011;5978;51.020;6.764;2022-07-17T09:16:51;3.70;;;1.77;;
11837;SDS011;5978;51.020;6.764;2022-07-17T09:19:24;8.00;;;2.10;;
11837;SDS011;5978;51.020;6.764;2022-07-17T09:21:50;4.13;;;2.60;;
11837;SDS011;5978;51.020;6.764;2022-07-17T09:24:16;5.20;;;2.30;;
11837;SDS011;5978;51.020;6.764;2022-07-17T09:26:43;4.30;;;2.17;;
11837;SDS011;5978;51.020;6.764;2022-07-17T09:29:09;2.53;;;1.90;;
11837;SDS011;5978;51.020;6.764;2022-07-17T09:31:37;6.67;;;2.23;;
11837;SDS011;5978;51.020;6.764;2022-07-17T09:34:03;2.73;;;1.77;;
11837;SDS011;5978;51.020;6.764;2022-07-17T09:36:29;3.10;;;1.80;;
11837;SDS011;5978;51.020;6.764;2022-07-17T09:38:55;2.97;;;1.80;;
11837;SDS011;5978;51.020;6.764;2022-07-17T09:41:22;5.33;;;1.90;;
11837;SDS011;5978;51.020;6.764;2022-07-17T09:43:56;4.37;;;2.50;;
11837;SDS011;5978;51.020;6.764;2022-07-17T09:46:28;4.40;;;2.13;;
11837;SDS011;5978;51.020;6.764;2022-07-17T09:48:56;5.93;;;1.90;;
11837;SDS011;5978;51.020;6.764;2022-07-17T09:51:35;7.27;;;1.50;;
11837;SDS011;5978;51.020;6.764;2022-07-17T09:54:04;3.80;;;2.40;;
11837;SDS011;5978;51.020;6.764;2022-07-17T09:56:34;7.30;;;2.60;;
11837;SDS011;5978;51.020;6.764;2022-07-17T09:59:08;6.40;;;2.70;;
11837;SDS011;5978;51.020;6.764;2022-07-17T10:01:35;2.37;;;1.83;;
11837;SDS011;5978;51.020;6.764;2022-07-17T10:04:03;5.70;;;2.00;;
11837;SDS011;5978;51.020;6.764;2022-07-17T10:06:29;5.10;;;2.53;;
11837;SDS011;5978;51.020;6.764;2022-07-17T10:08:55;4.40;;;2.90;;
11837;SDS011;5978;51.020;6.764;2022-07-17T10:11:22;4.20;;;2.00;;
11837;SDS011;5978;51.020;6.764;2022-07-17T10:13:51;5.30;;;2.03;;
11837;SDS011;5978;51.020;6.764;2022-07-17T10:16:25;4.13;;;1.87;;
11837;SDS011;5978;51.020;6.764;2022-07-17T10:18:51;5.23;;;1.83;;
11837;SDS011;5978;51.020;6.764;2022-07-17T10:21:20;5.40;;;2.47;;
11837;SDS011;5978;51.020;6.764;2022-07-17T10:23:48;8.50;;;2.53;;
11837;SDS011;5978;51.020;6.764;2022-07-17T10:26:37;4.60;;;2.20;;
11837;SDS011;5978;51.020;6.764;2022-07-17T10:32:01;5.00;;;1.97;;
11837;SDS011;5978;51.020;6.764;2022-07-17T10:34:39;6.43;;;2.30;;
11837;SDS011;5978;51.020;6.764;2022-07-17T10:37:19;4.70;;;1.83;;
11837;SDS011;5978;51.020;6.764;2022-07-17T10:45:10;7.60;;;2.23;;
11837;SDS011;5978;51.020;6.764;2022-07-17T10:50:14;9.80;;;2.60;;
11837;SDS011;5978;51.020;6.764;2022-07-17T10:52:41;2.80;;;1.90;;
11837;SDS011;5978;51.020;6.764;2022-07-17T10:55:17;3.13;;;2.07;;
11837;SDS011;5978;51.020;6.764;2022-07-17T10:57:44;3.47;;;2.27;;
11837;SDS011;5978;51.020;6.764;2022-07-17T11:00:10;4.00;;;2.17;;
11837;SDS011;5978;51.020;6.764;2022-07-17T11:02:36;6.70;;;2.67;;
11837;SDS011;5978;51.020;6.764;2022-07-17T11:05:09;3.93;;;1.93;;
11837;SDS011;5978;51.020;6.764;2022-07-17T11:07:36;3.10;;;2.20;;
11837;SDS011;5978;51.020;6.764;2022-07-17T11:10:19;3.67;;;2.30;;
11837;SDS011;5978;51.020;6.764;2022-07-17T11:12:46;3.50;;;2.53;;
11837;SDS011;5978;51.020;6.764;2022-07-17T11:15:11;4.60;;;2.40;;
11837;SDS011;5978;51.020;6.764;2022-07-17T11:17:38;5.00;;;2.70;;
11837;SDS011;5978;51.020;6.764;2022-07-17T11:20:08;5.60;;;2.67;;
11837;SDS011;5978;51.020;6.764;2022-07-17T11:22:35;7.10;;;2.10;;
11837;SDS011;5978;51.020;6.764;2022-07-17T11:25:02;3.93;;;2.10;;
11837;SDS011;5978;51.020;6.764;2022-07-17T11:27:29;3.93;;;2.13;;
11837;SDS011;5978;51.020;6.764;2022-07-17T11:29:57;4.70;;;2.00;;
11837;SDS011;5978;51.020;6.764;2022-07-17T11:32:31;7.27;;;2.13;;
11837;SDS011;5978;51.020;6.764;2022-07-17T11:35:00;12.63;;;2.20;;
11837;SDS011;5978;51.020;6.764;2022-07-17T11:37:29;7.93;;;2.30;;
11837;SDS011;5978;51.020;6.764;2022-07-17T11:39:58;10.17;;;2.43;;
11837;SDS011;5978;51.020;6.764;2022-07-17T11:42:24;4.10;;;1.87;;
11837;SDS011;5978;51.020;6.764;2022-07-17T11:44:50;4.87;;;2.20;;
11837;SDS011;5978;51.020;6.764;2022-07-17T11:47:21;4.70;;;2.70;;
11837;SDS011;5978;51.020;6.764;2022-07-17T11:49:47;2.63;;;1.97;;
11837;SDS011;5978;51.020;6.764;2022-07-17T11:52:14;5.43;;;2.00;;
11837;SDS011;5978;51.020;6.764;2022-07-17T11:54:53;5.93;;;2.40;;
11837;SDS011;5978;51.020;6.764;2022-07-17T11:57:19;3.37;;;1.63;;
11837;SDS011;5978;51.020;6.764;2022-07-17T11:59:47;3.20;;;2.03;;
11837;SDS011;5978;51.020;6.764;2022-07-17T12:02:14;3.83;;;2.10;;
11837;SDS011;5978;51.020;6.764;2022-07-17T12:04:55;5.93;;;2.40;;
11837;SDS011;5978;51.020;6.764;2022-07-17T12:07:22;6.80;;;3.57;;
11837;SDS011;5978;51.020;6.764;2022-07-17T12:09:49;4.37;;;2.53;;
11837;SDS011;5978;51.020;6.764;2022-07-17T12:12:26;4.17;;;2.60;;
11837;SDS011;5978;51.020;6.764;2022-07-17T12:14:56;3.20;;;1.77;;
11837;SDS011;5978;51.020;6.764;2022-07-17T12:17:23;5.17;;;2.00;;
11837;SDS011;5978;51.020;6.764;2022-07-17T12:19:50;5.70;;;2.50;;
11837;SDS011;5978;51.020;6.764;2022-07-17T12:22:17;5.47;;;1.67;;
11837;SDS011;5978;51.020;6.764;2022-07-17T12:24:44;6.47;;;2.20;;
11837;SDS011;5978;51.020;6.764;2022-07-17T12:27:14;3.37;;;2.40;;
11837;SDS011;5978;51.020;6.764;2022-07-17T12:29:41;3.20;;;2.10;;
11837;SDS011;5978;51.020;6.764;2022-07-17T12:32:11;6.40;;;1.80;;
11837;SDS011;5978;51.020;6.764;2022-07-17T12:34:42;7.60;;;2.20;;
11837;SDS011;5978;51.020;6.764;2022-07-17T12:37:20;3.33;;;2.00;;
11837;SDS011;5978;51.020;6.764;2022-07-17T12:39:48;1.97;;;1.67;;
11837;SDS011;5978;51.020;6.764;2022-07-17T12:42:14;7.40;;;1.87;;
11837;SDS011;5978;51.020;6.764;2022-07-17T12:44:41;7.40;;;2.00;;
11837;SDS011;5978;51.020;6.764;2022-07-17T12:47:08;1.97;;;1.40;;
11837;SDS011;5978;51.020;6.764;2022-07-17T12:49:34;3.13;;;1.60;;
11837;SDS011;5978;51.020;6.764;2022-07-17T12:52:00;2.53;;;1.40;;
11837;SDS011;5978;51.020;6.764;2022-07-17T12:54:26;4.50;;;1.77;;
11837;SDS011;5978;51.020;6.764;2022-07-17T12:56:52;3.80;;;1.80;;
11837;SDS011;5978;51.020;6.764;2022-07-17T12:59:18;2.37;;;1.40;;
11837;SDS011;5978;51.020;6.764;2022-07-17T13:01:44;5.00;;;1.30;;
11837;SDS011;5978;51.020;6.764;2022-07-17T13:04:10;2.60;;;1.77;;
11837;SDS011;5978;51.020;6.764;2022-07-17T13:06:36;6.07;;;1.70;;
11837;SDS011;5978;51.020;6.764;2022-07-17T13:09:02;5.63;;;1.93;;
11837;SDS011;5978;51.020;6.764;2022-07-17T13:11:28;3.30;;;1.80;;
11837;SDS011;5978;51.020;6.764;2022-07-17T13:13:54;7.30;;;1.97;;
11837;SDS011;5978;51.020;6.764;2022-07-17T13:16:20;3.60;;;1.60;;
11837;SDS011;5978;51.020;6.764;2022-07-17T13:18:45;5.20;;;1.60;;
11837;SDS011;5978;51.020;6.764;2022-07-17T13:21:11;4.00;;;1.77;;
11837;SDS011;5978;51.020;6.764;2022-07-17T13:23:37;3.43;;;1.80;;
11837;SDS011;5978;51.020;6.764;2022-07-17T13:26:04;2.33;;;1.40;;
11837;SDS011;5978;51.020;6.764;2022-07-17T13:28:30;2.80;;;1.80;;
11837;SDS011;5978;51.020;6.764;2022-07-17T13:30:56;3.20;;;1.83;;
11837;SDS011;5978;51.020;6.764;2022-07-17T13:33:22;2.87;;;1.60;;
11837;SDS011;5978;51.020;6.764;2022-07-17T13:35:49;3.10;;;1.90;;
11837;SDS011;5978;51.020;6.764;2022-07-17T13:38:14;4.90;;;1.70;;
11837;SDS011;5978;51.020;6.764;2022-07-17T13:40:40;2.63;;;2.00;;
11837;SDS011;5978;51.020;6.764;2022-07-17T13:43:05;4.33;;;2.00;;
11837;SDS011;5978;51.020;6.764;2022-07-17T13:45:31;2.77;;;1.87;;
11837;SDS011;5978;51.020;6.764;2022-07-17T13:47:58;3.43;;;1.70;;
11837;SDS011;5978;51.020;6.764;2022-07-17T13:50:24;5.53;;;2.00;;
11837;SDS011;5978;51.020;6.764;2022-07-17T13:52:50;3.80;;;1.90;;
11837;SDS011;5978;51.020;6.764;2022-07-17T13:55:16;4.20;;;2.07;;
11837;SDS011;5978;51.020;6.764;2022-07-17T13:57:42;2.40;;;1.70;;
11837;SDS011;5978;51.020;6.764;2022-07-17T14:00:08;4.97;;;1.97;;
11837;SDS011;5978;51.020;6.764;2022-07-17T14:02:35;2.43;;;2.20;;
11837;SDS011;5978;51.020;6.764;2022-07-17T14:05:03;4.73;;;1.90;;
11837;SDS011;5978;51.020;6.764;2022-07-17T14:07:29;1.90;;;1.67;;
11837;SDS011;5978;51.020;6.764;2022-07-17T14:09:55;8.70;;;2.20;;
11837;SDS011;5978;51.020;6.764;2022-07-17T14:12:21;4.30;;;2.03;;
11837;SDS011;5978;51.020;6.764;2022-07-17T14:14:46;2.97;;;1.60;;
11837;SDS011;5978;51.020;6.764;2022-07-17T14:17:12;3.20;;;1.80;;
11837;SDS011;5978;51.020;6.764;2022-07-17T14:19:38;2.97;;;1.90;;
11837;SDS011;5978;51.020;6.764;2022-07-17T14:22:04;2.30;;;1.60;;
11837;SDS011;5978;51.020;6.764;2022-07-17T14:24:30;4.13;;;2.00;;
11837;SDS011;5978;51.020;6.764;2022-07-17T14:26:55;2.40;;;1.53;;
11837;SDS011;5978;51.020;6.764;2022-07-17T14:29:21;1.70;;;1.37;;
11837;SDS011;5978;51.020;6.764;2022-07-17T14:31:47;2.70;;;1.80;;
11837;SDS011;5978;51.020;6.764;2022-07-17T14:34:13;2.40;;;1.80;;
11837;SDS011;5978;51.020;6.764;2022-07-17T14:36:38;5.23;;;1.80;;
11837;SDS011;5978;51.020;6.764;2022-07-17T14:39:04;4.43;;;2.00;;
11837;SDS011;5978;51.020;6.764;2022-07-17T14:41:30;3.53;;;2.20;;
11837;SDS011;5978;51.020;6.764;2022-07-17T14:43:56;3.77;;;2.00;;
11837;SDS011;5978;51.020;6.764;2022-07-17T14:46:22;2.90;;;1.57;;
11837;SDS011;5978;51.020;6.764;2022-07-17T14:48:48;4.70;;;2.00;;
11837;SDS011;5978;51.020;6.764;2022-07-17T14:51:14;3.83;;;1.77;;
11837;SDS011;5978;51.020;6.764;2022-07-17T14:53:39;3.50;;;2.17;;
11837;SDS011;5978;51.020;6.764;2022-07-17T14:56:05;1.97;;;1.87;;
11837;SDS011;5978;51.020;6.764;2022-07-17T14:58:30;4.00;;;2.53;;
11837;SDS011;5978;51.020;6.764;2022-07-17T15:00:56;2.60;;;1.57;;
11837;SDS011;5978;51.020;6.764;2022-07-17T15:03:21;5.77;;;1.83;;
11837;SDS011;5978;51.020;6.764;2022-07-17T15:05:47;3.33;;;2.10;;
11837;SDS011;5978;51.020;6.764;2022-07-17T15:08:13;2.80;;;2.20;;
11837;SDS011;5978;51.020;6.764;2022-07-17T15:10:38;2.27;;;2.07;;